sensor_id;sensor_type;location;lat;lon;timestamp;pressure;altitude;pressure_sealevel;temperature
19948;BMP180;10135;50.702;7.276;2023-08-17T05:02:13;99651.00;;;24.20
19948;BMP180;10135;50.702;7.276;2023-08-17T05:04:13;99651.00;;;24.20
19948;BMP180;10135;50.702;7.276;2023-08-17T05:06:14;99654.00;;;24.20
19948;BMP180;10135;50.702;7.276;2023-08-17T05:08:15;99649.00;;;24.20
19948;BMP180;10135;50.702;7.276;2023-08-17T05:10:16;99652.00;;;24.20
19948;BMP180;10135;50.702;7.276;2023-08-17T05:12:17;99651.00;;;24.20
19948;BMP180;10135;50.702;7.276;2023-08-17T05:14:18;99651.00;;;24.20
19948;BMP180;10135;50.702;7.276;2023-08-17T05:16:18;99649.00;;;24.20
19948;BMP180;10135;50.702;7.276;2023-08-17T05:18:19;99647.00;;;24.20
19948;BMP180;10135;50.702;7.276;2023-08-17T05:20:19;99645.00;;;24.20
19948;BMP180;10135;50.702;7.276;2023-08-17T05:22:21;99649.00;;;24.10
19948;BMP180;10135;50.702;7.276;2023-08-17T05:24:21;99647.00;;;24.20
19948;BMP180;10135;50.702;7.276;2023-08-17T05:26:22;99656.00;;;24.20
19948;BMP180;10135;50.702;7.276;2023-08-17T05:28:23;99660.00;;;24.10
19948;BMP180;10135;50.702;7.276;2023-08-17T05:30:24;99660.00;;;24.10
19948;BMP180;10135;50.702;7.276;2023-08-17T05:32:24;99656.00;;;24.10
19948;BMP180;10135;50.702;7.276;2023-08-17T05:34:25;99665.00;;;24.10
19948;BMP180;10135;50.702;7.276;2023-08-17T05:36:26;99660.00;;;24.10
19948;BMP180;10135;50.702;7.276;2023-08-17T05:38:26;99660.00;;;24.10
19948;BMP180;10135;50.702;7.276;2023-08-17T05:40:32;99662.00;;;24.10
19948;BMP180;10135;50.702;7.276;2023-08-17T05:42:33;99659.00;;;24.00
19948;BMP180;10135;50.702;7.276;2023-08-17T05:44:33;99662.00;;;24.00
19948;BMP180;10135;50.702;7.276;2023-08-17T05:46:34;99670.00;;;24.00
19948;BMP180;10135;50.702;7.276;2023-08-17T05:48:35;99666.00;;;24.00
19948;BMP180;10135;50.702;7.276;2023-08-17T05:50:35;99670.00;;;24.00
19948;BMP180;10135;50.702;7.276;2023-08-17T05:52:36;99671.00;;;23.90
19948;BMP180;10135;50.702;7.276;2023-08-17T05:54:36;99672.00;;;23.90
19948;BMP180;10135;50.702;7.276;2023-08-17T05:56:37;99676.00;;;23.90
19948;BMP180;10135;50.702;7.276;2023-08-17T05:58:38;99670.00;;;23.90
19948;BMP180;10135;50.702;7.276;2023-08-17T06:00:38;99674.00;;;23.80
19948;BMP180;10135;50.702;7.276;2023-08-17T06:02:39;99673.00;;;23.80
19948;BMP180;10135;50.702;7.276;2023-08-17T06:04:40;99668.00;;;23.80
19948;BMP180;10135;50.702;7.276;2023-08-17T06:06:41;99671.00;;;23.80
19948;BMP180;10135;50.702;7.276;2023-08-17T06:08:41;99676.00;;;23.80
19948;BMP180;10135;50.702;7.276;2023-08-17T06:10:42;99669.00;;;23.80
19948;BMP180;10135;50.702;7.276;2023-08-17T06:12:43;99673.00;;;23.80
19948;BMP180;10135;50.702;7.276;2023-08-17T06:14:43;99677.00;;;23.80
19948;BMP180;10135;50.702;7.276;2023-08-17T06:16:44;99677.00;;;23.70
19948;BMP180;10135;50.702;7.276;2023-08-17T06:18:45;99678.00;;;23.70
19948;BMP180;10135;50.702;7.276;2023-08-17T06:20:46;99673.00;;;23.70
19948;BMP180;10135;50.702;7.276;2023-08-17T06:22:48;99683.00;;;23.70
19948;BMP180;10135;50.702;7.276;2023-08-17T06:24:52;99681.00;;;23.70
19948;BMP180;10135;50.702;7.276;2023-08-17T06:26:52;99685.00;;;23.70
19948;BMP180;10135;50.702;7.276;2023-08-17T06:28:53;99677.00;;;23.70
19948;BMP180;10135;50.702;7.276;2023-08-17T06:30:55;99683.00;;;23.70
19948;BMP180;10135;50.702;7.276;2023-08-17T06:32:55;99679.00;;;23.70
19948;BMP180;10135;50.702;7.276;2023-08-17T06:34:56;99677.00;;;23.70
19948;BMP180;10135;50.702;7.276;2023-08-17T06:37:01;99679.00;;;23.70
19948;BMP180;10135;50.702;7.276;2023-08-17T06:39:02;99688.00;;;23.70
19948;BMP180;10135;50.702;7.276;2023-08-17T06:41:04;99690.00;;;23.70
19948;BMP180;10135;50.702;7.276;2023-08-17T06:43:05;99682.00;;;23.70
19948;BMP180;10135;50.702;7.276;2023-08-17T06:45:07;99684.00;;;23.70
19948;BMP180;10135;50.702;7.276;2023-08-17T06:47:07;99688.00;;;23.70
19948;BMP180;10135;50.702;7.276;2023-08-17T06:49:08;99688.00;;;23.70
19948;BMP180;10135;50.702;7.276;2023-08-17T06:51:09;99679.00;;;23.80
19948;BMP180;10135;50.702;7.276;2023-08-17T06:53:09;99680.00;;;23.80
19948;BMP180;10135;50.702;7.276;2023-08-17T06:55:10;99675.00;;;23.80
19948;BMP180;10135;50.702;7.276;2023-08-17T06:57:11;99684.00;;;23.80
19948;BMP180;10135;50.702;7.276;2023-08-17T06:59:11;99688.00;;;23.80
19948;BMP180;10135;50.702;7.276;2023-08-17T07:01:12;99691.00;;;23.80
19948;BMP180;10135;50.702;7.276;2023-08-17T07:03:13;99692.00;;;23.80
19948;BMP180;10135;50.702;7.276;2023-08-17T07:05:17;99696.00;;;23.70
19948;BMP180;10135;50.702;7.276;2023-08-17T07:07:21;99694.00;;;23.80
19948;BMP180;10135;50.702;7.276;2023-08-17T07:09:22;99692.00;;;23.80
19948;BMP180;10135;50.702;7.276;2023-08-17T07:11:23;99701.00;;;23.70
19948;BMP180;10135;50.702;7.276;2023-08-17T07:13:23;99700.00;;;23.80
19948;BMP180;10135;50.702;7.276;2023-08-17T07:15:24;99699.00;;;23.80
19948;BMP180;10135;50.702;7.276;2023-08-17T07:17:25;99706.00;;;23.80
19948;BMP180;10135;50.702;7.276;2023-08-17T07:19:28;99702.00;;;23.80
19948;BMP180;10135;50.702;7.276;2023-08-17T07:21:29;99707.00;;;23.80
19948;BMP180;10135;50.702;7.276;2023-08-17T07:23:29;99703.00;;;23.80
19948;BMP180;10135;50.702;7.276;2023-08-17T07:25:30;99700.00;;;23.80
19948;BMP180;10135;50.702;7.276;2023-08-17T07:27:31;99707.00;;;23.80
19948;BMP180;10135;50.702;7.276;2023-08-17T07:29:31;99706.00;;;23.80
19948;BMP180;10135;50.702;7.276;2023-08-17T07:31:32;99709.00;;;23.80
19948;BMP180;10135;50.702;7.276;2023-08-17T07:33:34;99719.00;;;23.80
19948;BMP180;10135;50.702;7.276;2023-08-17T07:35:34;99717.00;;;23.80
19948;BMP180;10135;50.702;7.276;2023-08-17T07:37:35;99721.00;;;23.90
19948;BMP180;10135;50.702;7.276;2023-08-17T07:39:36;99723.00;;;23.90
19948;BMP180;10135;50.702;7.276;2023-08-17T07:41:36;99724.00;;;23.80
19948;BMP180;10135;50.702;7.276;2023-08-17T07:43:37;99723.00;;;23.90
19948;BMP180;10135;50.702;7.276;2023-08-17T07:45:38;99724.00;;;23.90
19948;BMP180;10135;50.702;7.276;2023-08-17T07:47:38;99729.00;;;23.90
19948;BMP180;10135;50.702;7.276;2023-08-17T07:49:39;99720.00;;;23.90
19948;BMP180;10135;50.702;7.276;2023-08-17T07:51:40;99729.00;;;23.90
19948;BMP180;10135;50.702;7.276;2023-08-17T07:53:40;99734.00;;;23.90
19948;BMP180;10135;50.702;7.276;2023-08-17T07:55:41;99734.00;;;23.90
19948;BMP180;10135;50.702;7.276;2023-08-17T07:57:42;99736.00;;;23.90
19948;BMP180;10135;50.702;7.276;2023-08-17T07:59:42;99741.00;;;23.90
19948;BMP180;10135;50.702;7.276;2023-08-17T08:02:12;99734.00;;;23.90
19948;BMP180;10135;50.702;7.276;2023-08-17T08:04:18;99734.00;;;23.90
19948;BMP180;10135;50.702;7.276;2023-08-17T08:06:27;99729.00;;;23.90
19948;BMP180;10135;50.702;7.276;2023-08-17T08:08:42;99727.00;;;23.90
19948;BMP180;10135;50.702;7.276;2023-08-17T08:11:20;99737.00;;;24.00
19948;BMP180;10135;50.702;7.276;2023-08-17T08:13:33;99725.00;;;24.00
19948;BMP180;10135;50.702;7.276;2023-08-17T08:15:47;99718.00;;;24.00
19948;BMP180;10135;50.702;7.276;2023-08-17T08:18:04;99714.00;;;24.10
19948;BMP180;10135;50.702;7.276;2023-08-17T08:20:33;99720.00;;;24.10
19948;BMP180;10135;50.702;7.276;2023-08-17T08:22:37;99715.00;;;24.10
19948;BMP180;10135;50.702;7.276;2023-08-17T08:25:07;99720.00;;;24.10
19948;BMP180;10135;50.702;7.276;2023-08-17T08:27:16;99718.00;;;24.20
19948;BMP180;10135;50.702;7.276;2023-08-17T08:29:32;99718.00;;;24.20
19948;BMP180;10135;50.702;7.276;2023-08-17T08:31:55;99721.00;;;24.20
19948;BMP180;10135;50.702;7.276;2023-08-17T08:34:51;99716.00;;;24.30
19948;BMP180;10135;50.702;7.276;2023-08-17T08:37:14;99709.00;;;24.30
19948;BMP180;10135;50.702;7.276;2023-08-17T08:41:57;99710.00;;;24.40
19948;BMP180;10135;50.702;7.276;2023-08-17T08:44:07;99702.00;;;24.50
19948;BMP180;10135;50.702;7.276;2023-08-17T08:49:36;99698.00;;;24.50
19948;BMP180;10135;50.702;7.276;2023-08-17T08:52:41;99696.00;;;24.60
19948;BMP180;10135;50.702;7.276;2023-08-17T08:55:00;99704.00;;;24.70
19948;BMP180;10135;50.702;7.276;2023-08-17T08:57:10;99704.00;;;24.70
19948;BMP180;10135;50.702;7.276;2023-08-17T08:59:24;99706.00;;;24.70
19948;BMP180;10135;50.702;7.276;2023-08-17T09:01:36;99704.00;;;24.70
19948;BMP180;10135;50.702;7.276;2023-08-17T09:03:43;99704.00;;;24.80
19948;BMP180;10135;50.702;7.276;2023-08-17T09:06:01;99707.00;;;24.80
19948;BMP180;10135;50.702;7.276;2023-08-17T09:08:28;99700.00;;;24.80
19948;BMP180;10135;50.702;7.276;2023-08-17T09:10:31;99698.00;;;24.90
19948;BMP180;10135;50.702;7.276;2023-08-17T09:12:35;99698.00;;;24.90
19948;BMP180;10135;50.702;7.276;2023-08-17T09:14:44;99697.00;;;24.90
19948;BMP180;10135;50.702;7.276;2023-08-17T09:17:00;99697.00;;;24.90
19948;BMP180;10135;50.702;7.276;2023-08-17T09:19:07;99698.00;;;24.90
19948;BMP180;10135;50.702;7.276;2023-08-17T09:21:23;99693.00;;;24.90
19948;BMP180;10135;50.702;7.276;2023-08-17T09:23:26;99692.00;;;24.90
19948;BMP180;10135;50.702;7.276;2023-08-17T09:25:44;99695.00;;;24.90
19948;BMP180;10135;50.702;7.276;2023-08-17T09:27:53;99688.00;;;24.90
19948;BMP180;10135;50.702;7.276;2023-08-17T09:30:21;99685.00;;;24.90
19948;BMP180;10135;50.702;7.276;2023-08-17T09:32:22;99694.00;;;25.00
19948;BMP180;10135;50.702;7.276;2023-08-17T09:38:38;99688.00;;;25.00
19948;BMP180;10135;50.702;7.276;2023-08-17T09:40:41;99689.00;;;25.00
19948;BMP180;10135;50.702;7.276;2023-08-17T09:42:44;99694.00;;;25.00
19948;BMP180;10135;50.702;7.276;2023-08-17T09:44:51;99695.00;;;25.00
19948;BMP180;10135;50.702;7.276;2023-08-17T09:46:56;99691.00;;;25.00
19948;BMP180;10135;50.702;7.276;2023-08-17T09:49:02;99690.00;;;25.00
19948;BMP180;10135;50.702;7.276;2023-08-17T09:51:10;99686.00;;;25.00
19948;BMP180;10135;50.702;7.276;2023-08-17T09:53:16;99687.00;;;25.00
19948;BMP180;10135;50.702;7.276;2023-08-17T09:55:17;99694.00;;;25.00
19948;BMP180;10135;50.702;7.276;2023-08-17T09:57:18;99689.00;;;25.00
19948;BMP180;10135;50.702;7.276;2023-08-17T09:59:20;99685.00;;;25.00
19948;BMP180;10135;50.702;7.276;2023-08-17T10:01:26;99685.00;;;25.00
19948;BMP180;10135;50.702;7.276;2023-08-17T10:03:32;99680.00;;;25.00
19948;BMP180;10135;50.702;7.276;2023-08-17T10:05:58;99680.00;;;25.00
19948;BMP180;10135;50.702;7.276;2023-08-17T10:08:03;99677.00;;;25.00
19948;BMP180;10135;50.702;7.276;2023-08-17T10:10:16;99683.00;;;25.00
19948;BMP180;10135;50.702;7.276;2023-08-17T10:12:23;99677.00;;;25.00
19948;BMP180;10135;50.702;7.276;2023-08-17T10:14:36;99678.00;;;25.00
19948;BMP180;10135;50.702;7.276;2023-08-17T10:16:45;99682.00;;;25.10
19948;BMP180;10135;50.702;7.276;2023-08-17T10:21:51;99674.00;;;25.10
19948;BMP180;10135;50.702;7.276;2023-08-17T10:23:56;99664.00;;;25.10
19948;BMP180;10135;50.702;7.276;2023-08-17T10:26:00;99668.00;;;25.10
19948;BMP180;10135;50.702;7.276;2023-08-17T10:28:04;99679.00;;;25.20
19948;BMP180;10135;50.702;7.276;2023-08-17T10:30:06;99673.00;;;25.20
19948;BMP180;10135;50.702;7.276;2023-08-17T10:32:15;99678.00;;;25.20
19948;BMP180;10135;50.702;7.276;2023-08-17T10:34:18;99677.00;;;25.20
19948;BMP180;10135;50.702;7.276;2023-08-17T10:36:22;99676.00;;;25.20
19948;BMP180;10135;50.702;7.276;2023-08-17T10:38:23;99670.00;;;25.30
19948;BMP180;10135;50.702;7.276;2023-08-17T10:41:13;99681.00;;;25.30
19948;BMP180;10135;50.702;7.276;2023-08-17T10:43:17;99685.00;;;25.30
19948;BMP180;10135;50.702;7.276;2023-08-17T10:45:29;99690.00;;;25.30
19948;BMP180;10135;50.702;7.276;2023-08-17T10:47:32;99692.00;;;25.40
19948;BMP180;10135;50.702;7.276;2023-08-17T10:49:36;99687.00;;;25.40
19948;BMP180;10135;50.702;7.276;2023-08-17T10:51:37;99682.00;;;25.40
19948;BMP180;10135;50.702;7.276;2023-08-17T10:53:47;99682.00;;;25.40
19948;BMP180;10135;50.702;7.276;2023-08-17T10:58:19;99687.00;;;25.50
19948;BMP180;10135;50.702;7.276;2023-08-17T11:00:24;99687.00;;;25.50
19948;BMP180;10135;50.702;7.276;2023-08-17T11:02:32;99684.00;;;25.60
19948;BMP180;10135;50.702;7.276;2023-08-17T11:04:33;99685.00;;;25.60
19948;BMP180;10135;50.702;7.276;2023-08-17T11:06:35;99690.00;;;25.60
19948;BMP180;10135;50.702;7.276;2023-08-17T11:08:42;99686.00;;;25.70
19948;BMP180;10135;50.702;7.276;2023-08-17T11:11:05;99690.00;;;25.70
19948;BMP180;10135;50.702;7.276;2023-08-17T11:13:06;99691.00;;;25.80
19948;BMP180;10135;50.702;7.276;2023-08-17T11:15:08;99694.00;;;25.80
19948;BMP180;10135;50.702;7.276;2023-08-17T11:17:09;99698.00;;;25.80
19948;BMP180;10135;50.702;7.276;2023-08-17T11:19:10;99701.00;;;25.80
19948;BMP180;10135;50.702;7.276;2023-08-17T11:21:11;99703.00;;;25.80
19948;BMP180;10135;50.702;7.276;2023-08-17T11:23:12;99695.00;;;25.80
19948;BMP180;10135;50.702;7.276;2023-08-17T11:25:13;99693.00;;;25.80
19948;BMP180;10135;50.702;7.276;2023-08-17T11:27:15;99687.00;;;25.90
19948;BMP180;10135;50.702;7.276;2023-08-17T11:29:15;99690.00;;;25.90
19948;BMP180;10135;50.702;7.276;2023-08-17T11:31:16;99690.00;;;25.90
19948;BMP180;10135;50.702;7.276;2023-08-17T11:33:17;99693.00;;;25.90
19948;BMP180;10135;50.702;7.276;2023-08-17T11:35:18;99688.00;;;25.90
19948;BMP180;10135;50.702;7.276;2023-08-17T11:37:21;99686.00;;;25.90
19948;BMP180;10135;50.702;7.276;2023-08-17T11:39:21;99679.00;;;25.90
19948;BMP180;10135;50.702;7.276;2023-08-17T11:41:22;99682.00;;;25.90
19948;BMP180;10135;50.702;7.276;2023-08-17T11:43:23;99680.00;;;26.00
19948;BMP180;10135;50.702;7.276;2023-08-17T11:45:23;99684.00;;;25.90
19948;BMP180;10135;50.702;7.276;2023-08-17T11:47:24;99679.00;;;25.90
19948;BMP180;10135;50.702;7.276;2023-08-17T11:49:25;99677.00;;;25.90
19948;BMP180;10135;50.702;7.276;2023-08-17T11:51:32;99682.00;;;25.90
19948;BMP180;10135;50.702;7.276;2023-08-17T11:53:37;99680.00;;;26.00
19948;BMP180;10135;50.702;7.276;2023-08-17T11:55:39;99683.00;;;26.00
19948;BMP180;10135;50.702;7.276;2023-08-17T11:57:40;99683.00;;;26.00
19948;BMP180;10135;50.702;7.276;2023-08-17T11:59:40;99677.00;;;26.00
19948;BMP180;10135;50.702;7.276;2023-08-17T12:01:41;99677.00;;;26.10
19948;BMP180;10135;50.702;7.276;2023-08-17T12:03:42;99685.00;;;26.10
19948;BMP180;10135;50.702;7.276;2023-08-17T12:05:44;99682.00;;;26.10
19948;BMP180;10135;50.702;7.276;2023-08-17T12:07:46;99681.00;;;26.10
19948;BMP180;10135;50.702;7.276;2023-08-17T12:09:47;99689.00;;;26.10
19948;BMP180;10135;50.702;7.276;2023-08-17T12:11:48;99688.00;;;26.20
19948;BMP180;10135;50.702;7.276;2023-08-17T12:13:50;99687.00;;;26.20
19948;BMP180;10135;50.702;7.276;2023-08-17T12:15:51;99694.00;;;26.20
19948;BMP180;10135;50.702;7.276;2023-08-17T12:17:52;99694.00;;;26.20
19948;BMP180;10135;50.702;7.276;2023-08-17T12:19:55;99691.00;;;26.20
19948;BMP180;10135;50.702;7.276;2023-08-17T12:21:56;99694.00;;;26.30
19948;BMP180;10135;50.702;7.276;2023-08-17T12:23:58;99695.00;;;26.30
19948;BMP180;10135;50.702;7.276;2023-08-17T12:25:59;99691.00;;;26.30
19948;BMP180;10135;50.702;7.276;2023-08-17T12:28:00;99691.00;;;26.30
19948;BMP180;10135;50.702;7.276;2023-08-17T12:30:01;99703.00;;;26.40
19948;BMP180;10135;50.702;7.276;2023-08-17T12:32:02;99696.00;;;26.40
19948;BMP180;10135;50.702;7.276;2023-08-17T12:34:03;99698.00;;;26.40
19948;BMP180;10135;50.702;7.276;2023-08-17T12:36:05;99703.00;;;26.40
19948;BMP180;10135;50.702;7.276;2023-08-17T12:38:07;99700.00;;;26.40
19948;BMP180;10135;50.702;7.276;2023-08-17T12:40:09;99706.00;;;26.40
19948;BMP180;10135;50.702;7.276;2023-08-17T12:42:10;99700.00;;;26.50
19948;BMP180;10135;50.702;7.276;2023-08-17T12:44:11;99695.00;;;26.50
19948;BMP180;10135;50.702;7.276;2023-08-17T12:46:15;99692.00;;;26.50
19948;BMP180;10135;50.702;7.276;2023-08-17T12:48:15;99688.00;;;26.50
19948;BMP180;10135;50.702;7.276;2023-08-17T12:50:16;99691.00;;;26.50
19948;BMP180;10135;50.702;7.276;2023-08-17T12:52:17;99691.00;;;26.50
19948;BMP180;10135;50.702;7.276;2023-08-17T12:54:18;99688.00;;;26.50
19948;BMP180;10135;50.702;7.276;2023-08-17T12:56:19;99686.00;;;26.50
19948;BMP180;10135;50.702;7.276;2023-08-17T12:58:19;99687.00;;;26.50
19948;BMP180;10135;50.702;7.276;2023-08-17T13:00:20;99684.00;;;26.50
19948;BMP180;10135;50.702;7.276;2023-08-17T13:02:24;99680.00;;;26.50
19948;BMP180;10135;50.702;7.276;2023-08-17T13:04:24;99673.00;;;26.50
19948;BMP180;10135;50.702;7.276;2023-08-17T13:06:25;99676.00;;;26.50
19948;BMP180;10135;50.702;7.276;2023-08-17T13:08:25;99676.00;;;26.50
19948;BMP180;10135;50.702;7.276;2023-08-17T13:10:26;99676.00;;;26.60
19948;BMP180;10135;50.702;7.276;2023-08-17T13:12:27;99666.00;;;26.60
19948;BMP180;10135;50.702;7.276;2023-08-17T13:14:28;99666.00;;;26.60
19948;BMP180;10135;50.702;7.276;2023-08-17T13:16:28;99668.00;;;26.60
19948;BMP180;10135;50.702;7.276;2023-08-17T13:18:29;99660.00;;;26.70
19948;BMP180;10135;50.702;7.276;2023-08-17T13:20:30;99664.00;;;26.70
19948;BMP180;10135;50.702;7.276;2023-08-17T13:22:31;99662.00;;;26.70
19948;BMP180;10135;50.702;7.276;2023-08-17T13:24:31;99661.00;;;26.70
19948;BMP180;10135;50.702;7.276;2023-08-17T13:26:32;99667.00;;;26.80
19948;BMP180;10135;50.702;7.276;2023-08-17T13:28:33;99662.00;;;26.80
19948;BMP180;10135;50.702;7.276;2023-08-17T13:30:34;99665.00;;;26.80
19948;BMP180;10135;50.702;7.276;2023-08-17T13:32:34;99668.00;;;26.80
19948;BMP180;10135;50.702;7.276;2023-08-17T13:34:35;99665.00;;;26.80
19948;BMP180;10135;50.702;7.276;2023-08-17T13:36:36;99660.00;;;26.80
19948;BMP180;10135;50.702;7.276;2023-08-17T13:38:37;99666.00;;;26.90
19948;BMP180;10135;50.702;7.276;2023-08-17T13:40:39;99655.00;;;26.90
19948;BMP180;10135;50.702;7.276;2023-08-17T13:42:40;99657.00;;;27.00
19948;BMP180;10135;50.702;7.276;2023-08-17T13:44:40;99656.00;;;27.00
19948;BMP180;10135;50.702;7.276;2023-08-17T13:46:41;99654.00;;;27.10
19948;BMP180;10135;50.702;7.276;2023-08-17T13:48:42;99651.00;;;27.10
19948;BMP180;10135;50.702;7.276;2023-08-17T13:50:45;99649.00;;;27.10
19948;BMP180;10135;50.702;7.276;2023-08-17T13:52:46;99654.00;;;27.10
19948;BMP180;10135;50.702;7.276;2023-08-17T13:54:48;99650.00;;;27.10
19948;BMP180;10135;50.702;7.276;2023-08-17T13:56:48;99648.00;;;27.10
19948;BMP180;10135;50.702;7.276;2023-08-17T13:58:49;99645.00;;;27.10
19948;BMP180;10135;50.702;7.276;2023-08-17T14:00:50;99645.00;;;27.10
19948;BMP180;10135;50.702;7.276;2023-08-17T14:02:50;99637.00;;;27.10
19948;BMP180;10135;50.702;7.276;2023-08-17T14:04:51;99645.00;;;27.10
19948;BMP180;10135;50.702;7.276;2023-08-17T14:06:52;99640.00;;;27.10
19948;BMP180;10135;50.702;7.276;2023-08-17T14:08:52;99638.00;;;27.10
19948;BMP180;10135;50.702;7.276;2023-08-17T14:10:53;99630.00;;;27.10
19948;BMP180;10135;50.702;7.276;2023-08-17T14:12:54;99629.00;;;27.10
19948;BMP180;10135;50.702;7.276;2023-08-17T14:14:54;99633.00;;;27.10
19948;BMP180;10135;50.702;7.276;2023-08-17T14:16:55;99626.00;;;27.10
19948;BMP180;10135;50.702;7.276;2023-08-17T14:18:56;99624.00;;;27.20
19948;BMP180;10135;50.702;7.276;2023-08-17T14:20:56;99623.00;;;27.20
19948;BMP180;10135;50.702;7.276;2023-08-17T14:22:57;99612.00;;;27.20
19948;BMP180;10135;50.702;7.276;2023-08-17T14:24:58;99611.00;;;27.20
19948;BMP180;10135;50.702;7.276;2023-08-17T14:26:59;99606.00;;;27.20
19948;BMP180;10135;50.702;7.276;2023-08-17T14:29:00;99609.00;;;27.30
19948;BMP180;10135;50.702;7.276;2023-08-17T14:31:01;99599.00;;;27.30
19948;BMP180;10135;50.702;7.276;2023-08-17T14:33:01;99594.00;;;27.30
19948;BMP180;10135;50.702;7.276;2023-08-17T14:35:02;99594.00;;;27.40
19948;BMP180;10135;50.702;7.276;2023-08-17T14:37:03;99595.00;;;27.40
19948;BMP180;10135;50.702;7.276;2023-08-17T14:39:04;99595.00;;;27.40
19948;BMP180;10135;50.702;7.276;2023-08-17T14:41:04;99594.00;;;27.50
19948;BMP180;10135;50.702;7.276;2023-08-17T14:43:07;99589.00;;;27.50
19948;BMP180;10135;50.702;7.276;2023-08-17T14:45:08;99594.00;;;27.50
19948;BMP180;10135;50.702;7.276;2023-08-17T14:47:09;99583.00;;;27.60
19948;BMP180;10135;50.702;7.276;2023-08-17T14:49:09;99586.00;;;27.60
19948;BMP180;10135;50.702;7.276;2023-08-17T14:51:10;99587.00;;;27.70
19948;BMP180;10135;50.702;7.276;2023-08-17T14:53:11;99581.00;;;27.70
19948;BMP180;10135;50.702;7.276;2023-08-17T14:55:12;99584.00;;;27.70
19948;BMP180;10135;50.702;7.276;2023-08-17T14:57:13;99582.00;;;27.80
19948;BMP180;10135;50.702;7.276;2023-08-17T14:59:14;99581.00;;;27.80
19948;BMP180;10135;50.702;7.276;2023-08-17T15:01:14;99590.00;;;27.80
19948;BMP180;10135;50.702;7.276;2023-08-17T15:03:15;99586.00;;;27.80
19948;BMP180;10135;50.702;7.276;2023-08-17T15:05:16;99578.00;;;27.80
19948;BMP180;10135;50.702;7.276;2023-08-17T15:07:16;99576.00;;;27.80
19948;BMP180;10135;50.702;7.276;2023-08-17T15:09:17;99569.00;;;27.70
19948;BMP180;10135;50.702;7.276;2023-08-17T15:11:18;99567.00;;;27.70
19948;BMP180;10135;50.702;7.276;2023-08-17T15:13:20;99562.00;;;27.70
19948;BMP180;10135;50.702;7.276;2023-08-17T15:15:21;99562.00;;;27.70
19948;BMP180;10135;50.702;7.276;2023-08-17T15:17:21;99561.00;;;27.60
19948;BMP180;10135;50.702;7.276;2023-08-17T15:19:22;99551.00;;;27.60
19948;BMP180;10135;50.702;7.276;2023-08-17T15:21:22;99560.00;;;27.60
19948;BMP180;10135;50.702;7.276;2023-08-17T15:23:23;99552.00;;;27.60
19948;BMP180;10135;50.702;7.276;2023-08-17T15:25:24;99557.00;;;27.60
19948;BMP180;10135;50.702;7.276;2023-08-17T15:27:24;99549.00;;;27.60
19948;BMP180;10135;50.702;7.276;2023-08-17T15:29:25;99546.00;;;27.60
19948;BMP180;10135;50.702;7.276;2023-08-17T15:31:26;99542.00;;;27.60
19948;BMP180;10135;50.702;7.276;2023-08-17T15:33:26;99545.00;;;27.60
19948;BMP180;10135;50.702;7.276;2023-08-17T15:35:27;99545.00;;;27.60
19948;BMP180;10135;50.702;7.276;2023-08-17T15:37:28;99545.00;;;27.60
19948;BMP180;10135;50.702;7.276;2023-08-17T15:39:29;99543.00;;;27.50
19948;BMP180;10135;50.702;7.276;2023-08-17T15:41:29;99539.00;;;27.60
19948;BMP180;10135;50.702;7.276;2023-08-17T15:43:30;99535.00;;;27.60
19948;BMP180;10135;50.702;7.276;2023-08-17T15:45:31;99538.00;;;27.60
19948;BMP180;10135;50.702;7.276;2023-08-17T15:47:32;99531.00;;;27.60
19948;BMP180;10135;50.702;7.276;2023-08-17T15:49:33;99531.00;;;27.60
19948;BMP180;10135;50.702;7.276;2023-08-17T15:51:34;99528.00;;;27.60
19948;BMP180;10135;50.702;7.276;2023-08-17T15:53:35;99526.00;;;27.60
19948;BMP180;10135;50.702;7.276;2023-08-17T15:55:39;99521.00;;;27.60
19948;BMP180;10135;50.702;7.276;2023-08-17T15:57:39;99523.00;;;27.60
19948;BMP180;10135;50.702;7.276;2023-08-17T15:59:40;99518.00;;;27.60
19948;BMP180;10135;50.702;7.276;2023-08-17T16:01:41;99516.00;;;27.60
19948;BMP180;10135;50.702;7.276;2023-08-17T16:03:42;99517.00;;;27.60
19948;BMP180;10135;50.702;7.276;2023-08-17T16:05:42;99512.00;;;27.60
19948;BMP180;10135;50.702;7.276;2023-08-17T16:07:43;99508.00;;;27.60
19948;BMP180;10135;50.702;7.276;2023-08-17T16:09:44;99517.00;;;27.60
19948;BMP180;10135;50.702;7.276;2023-08-17T16:11:44;99513.00;;;27.60
19948;BMP180;10135;50.702;7.276;2023-08-17T16:13:45;99507.00;;;27.60
19948;BMP180;10135;50.702;7.276;2023-08-17T16:15:46;99508.00;;;27.60
19948;BMP180;10135;50.702;7.276;2023-08-17T16:17:46;99502.00;;;27.70
19948;BMP180;10135;50.702;7.276;2023-08-17T16:19:47;99501.00;;;27.70
19948;BMP180;10135;50.702;7.276;2023-08-17T16:21:47;99507.00;;;27.70
19948;BMP180;10135;50.702;7.276;2023-08-17T16:23:48;99505.00;;;27.70
19948;BMP180;10135;50.702;7.276;2023-08-17T16:25:49;99497.00;;;27.70
19948;BMP180;10135;50.702;7.276;2023-08-17T16:27:50;99501.00;;;27.70
19948;BMP180;10135;50.702;7.276;2023-08-17T16:29:50;99494.00;;;27.60
19948;BMP180;10135;50.702;7.276;2023-08-17T16:32:02;99500.00;;;27.60
19948;BMP180;10135;50.702;7.276;2023-08-17T16:34:03;99492.00;;;27.60
19948;BMP180;10135;50.702;7.276;2023-08-17T16:36:04;99494.00;;;27.60
19948;BMP180;10135;50.702;7.276;2023-08-17T16:38:05;99500.00;;;27.60
19948;BMP180;10135;50.702;7.276;2023-08-17T16:40:07;99504.00;;;27.60
19948;BMP180;10135;50.702;7.276;2023-08-17T16:42:08;99503.00;;;27.50
19948;BMP180;10135;50.702;7.276;2023-08-17T16:44:08;99507.00;;;27.50
19948;BMP180;10135;50.702;7.276;2023-08-17T16:46:09;99507.00;;;27.50
19948;BMP180;10135;50.702;7.276;2023-08-17T16:48:10;99506.00;;;27.50
19948;BMP180;10135;50.702;7.276;2023-08-17T16:50:11;99504.00;;;27.50
19948;BMP180;10135;50.702;7.276;2023-08-17T16:52:11;99501.00;;;27.40
19948;BMP180;10135;50.702;7.276;2023-08-17T16:54:12;99509.00;;;27.40
19948;BMP180;10135;50.702;7.276;2023-08-17T16:56:13;99511.00;;;27.40
19948;BMP180;10135;50.702;7.276;2023-08-17T16:58:13;99510.00;;;27.40
19948;BMP180;10135;50.702;7.276;2023-08-17T17:00:15;99513.00;;;27.40
19948;BMP180;10135;50.702;7.276;2023-08-17T17:02:15;99510.00;;;27.40
19948;BMP180;10135;50.702;7.276;2023-08-17T17:04:16;99517.00;;;27.40
19948;BMP180;10135;50.702;7.276;2023-08-17T17:06:18;99519.00;;;27.30
19948;BMP180;10135;50.702;7.276;2023-08-17T17:08:19;99515.00;;;27.30